Погода Старое Почвинона 2 недели

Тверская область, Россия

18 - 31 мая
  • 18мая
    Сегодня
    +5°
    +22°
    Ясно и безоблачно
    ВремяПогодаТемператураВлажностьДавлениеВетер, м/сВероятность осадков
    00:00Практически безоблачно+10°C74 %753 мм0.7 м/с2 %
    03:00Ясно и безоблачно+6°C90 %753 мм0.4 м/с2 %
    06:00Ясно и безоблачно+6°C85 %754 мм0.8 м/с2 %
    09:00Ясно и безоблачно+15°C62 %754 мм1.2 м/с2 %
    12:00Ясно и безоблачно+19°C41 %754 мм2.4 м/с2 %
    15:00Ясно и безоблачно+21°C41 %753 мм2.3 м/с2 %
    18:00Ясно и безоблачно+21°C43 %752 мм2.0 м/с2 %
    21:00Ясно и безоблачно+14°C68 %752 мм0.9 м/с2 %
  • 19мая
    Воскресенье
    +10°
    +23°
    Ясно и безоблачно
    ВремяПогодаТемператураВлажностьДавлениеВетер, м/сВероятность осадков
    00:00Ясно и безоблачно+9°C75 %752 мм0.7 м/с2 %
    03:00Ясно и безоблачно+6°C86 %752 мм0.6 м/с2 %
    06:00Ясно и безоблачно+7°C87 %752 мм0.8 м/с2 %
    09:00Ясно и безоблачно+16°C63 %752 мм1.4 м/с2 %
    12:00Ясно и безоблачно+20°C49 %752 мм2.3 м/с2 %
    15:00Ясно и безоблачно+22°C43 %751 мм2.2 м/с2 %
    18:00Ясно и безоблачно+23°C42 %750 мм1.9 м/с2 %
    21:00Ясно и безоблачно+16°C60 %749 мм1.0 м/с2 %
  • 20мая
    Понедельник
    +9°
    +23°
    Облачно с прояснениями
    ВремяПогодаТемператураВлажностьДавлениеВетер, м/сВероятность осадков
    00:00Ясно и безоблачно+12°C73 %749 мм1.2 м/с2 %
    03:00Практически безоблачно+11°C74 %748 мм1.0 м/с2 %
    06:00Небольшая облачность+12°C69 %749 мм1.3 м/с2 %
    09:00Ясно и безоблачно+18°C59 %749 мм2.0 м/с2 %
    12:00Практически безоблачно+22°C41 %749 мм3.4 м/с7 %
    15:00Облачно с прояснениями+23°C37 %748 мм2.7 м/с13 %
    18:00Облачно с прояснениями+22°C43 %748 мм1.9 м/с21 %
    21:00Облачно с прояснениями+17°C73 %749 мм0.6 м/с13 %
  • 21мая
    Вторник
    +7°
    +23°
    Ясно и безоблачно
    ВремяПогодаТемператураВлажностьДавлениеВетер, м/сВероятность осадков
    00:00Небольшая облачность+11°C92 %749 мм0.3 м/с2 %
    03:00Ясно и безоблачно+10°C95 %750 мм0.8 м/с3 %
    06:00Практически безоблачно+10°C80 %751 мм0.7 м/с7 %
    09:00Ясно и безоблачно+17°C73 %752 мм1.3 м/с7 %
    12:00Ясно и безоблачно+20°C50 %752 мм2.5 м/с8 %
    15:00Ясно и безоблачно+22°C38 %752 мм2.3 м/с13 %
    18:00Ясно и безоблачно+22°C37 %751 мм1.9 м/с11 %
    21:00Ясно и безоблачно+15°C61 %752 мм0.7 м/с2 %
  • 22мая
    Среда
    +6°
    +23°
    Ясно и безоблачно
    ВремяПогодаТемператураВлажностьДавлениеВетер, м/сВероятность осадков
    00:00Ясно и безоблачно+11°C65 %753 мм0.7 м/с2 %
    03:00Ясно и безоблачно+8°C78 %753 мм0.6 м/с2 %
    06:00Ясно и безоблачно+8°C78 %754 мм0.9 м/с2 %
    09:00Ясно и безоблачно+16°C55 %754 мм1.6 м/с2 %
    12:00Ясно и безоблачно+19°C45 %754 мм2.6 м/с5 %
    15:00Ясно и безоблачно+22°C40 %754 мм2.7 м/с7 %
    18:00Практически безоблачно+21°C40 %753 мм2.6 м/с5 %
    21:00Ясно и безоблачно+16°C49 %754 мм1.4 м/с2 %
Мы используем cookies
Соглашаюсь